Time;durP1;ratioP1;P1;durP2;ratioP2;P2;SDS_P1;SDS_P2;PMS_P1;PMS_P2;Temp;Humidity;BMP_temperature;BMP_pressure;BME280_temperature;BME280_humidity;BME280_pressure;Samples;Min_cycle;Max_cycle;Signal;HPM_P1;HPM_P2
2023/11/24 00:01:29;;;;;;;9.07;6.18;;;;;;;8.78;100.00;99953.09;5084380;28;20109;-69
2023/11/24 00:03:58;;;;;;;8.63;6.22;;;;;;;8.76;100.00;99965.50;5073415;28;20066;-69
2023/11/24 00:06:28;;;;;;;9.30;6.60;;;;;;;8.71;100.00;99941.09;5065693;28;20044;-69
2023/11/24 00:08:56;;;;;;;9.05;6.82;;;;;;;8.70;100.00;99926.19;5071962;28;20301;-67
2023/11/24 00:11:24;;;;;;;7.47;6.15;;;;;;;8.72;100.00;99944.59;5045656;28;20045;-69
2023/11/24 00:13:54;;;;;;;10.23;6.57;;;;;;;8.64;100.00;99915.94;5087605;28;20514;-68
2023/11/24 00:16:22;;;;;;;10.07;6.72;;;;;;;8.67;100.00;99912.25;5068961;28;20125;-68
2023/11/24 00:18:54;;;;;;;9.80;6.78;;;;;;;8.63;100.00;99924.78;5073924;28;20504;-68
2023/11/24 00:21:24;;;;;;;9.10;6.57;;;;;;;8.60;100.00;99922.28;5062862;28;20548;-68
2023/11/24 00:23:54;;;;;;;11.20;6.70;;;;;;;8.59;100.00;99915.28;5068126;28;20799;-69
2023/11/24 00:26:26;;;;;;;8.40;6.50;;;;;;;8.60;100.00;99911.72;5070140;28;20044;-68
2023/11/24 00:29:00;;;;;;;9.05;6.13;;;;;;;8.64;100.00;99921.22;5051274;28;20382;-68
2023/11/24 00:31:29;;;;;;;8.25;5.90;;;;;;;8.66;100.00;99914.03;5063513;28;20141;-67
2023/11/24 00:34:00;;;;;;;9.23;5.75;;;;;;;8.67;100.00;99913.13;5067326;28;20048;-70
2023/11/24 00:36:28;;;;;;;10.52;5.32;;;;;;;8.69;100.00;99915.69;5069007;28;20061;-67
2023/11/24 00:38:56;;;;;;;9.23;5.63;;;;;;;8.70;100.00;99912.13;5072799;28;20076;-68
2023/11/24 00:41:27;;;;;;;8.07;5.38;;;;;;;8.72;100.00;99905.00;5060543;28;20485;-68
2023/11/24 00:43:55;;;;;;;7.05;5.45;;;;;;;8.76;100.00;99899.50;5050649;28;20049;-69
2023/11/24 00:46:24;;;;;;;6.68;4.97;;;;;;;8.76;100.00;99902.16;5068833;28;20087;-70
2023/11/24 00:48:53;;;;;;;6.53;5.10;;;;;;;8.75;100.00;99889.03;5067686;28;20052;-70
2023/11/24 00:51:22;;;;;;;6.65;4.88;;;;;;;8.76;100.00;99896.88;5062879;28;20055;-69
2023/11/24 00:53:51;;;;;;;6.97;4.70;;;;;;;8.82;100.00;99889.56;5076259;28;20072;-70
2023/11/24 00:56:19;;;;;;;6.07;4.53;;;;;;;8.83;100.00;99892.13;5076337;28;20044;-70
2023/11/24 00:58:48;;;;;;;6.32;4.85;;;;;;;8.86;100.00;99891.13;5071187;28;20634;-67
2023/11/24 01:01:16;;;;;;;5.32;4.10;;;;;;;8.87;100.00;99895.50;5051681;28;20551;-68
2023/11/24 01:03:45;;;;;;;6.38;4.32;;;;;;;8.86;100.00;99894.63;5077546;28;20044;-68
2023/11/24 01:06:16;;;;;;;8.77;4.10;;;;;;;8.92;100.00;99896.13;5061978;28;20080;-69
2023/11/24 01:08:46;;;;;;;6.80;4.20;;;;;;;8.91;100.00;99883.84;5073443;28;20057;-68
2023/11/24 01:11:14;;;;;;;5.22;3.47;;;;;;;8.91;100.00;99875.94;5078485;28;20547;-69
2023/11/24 01:13:43;;;;;;;6.82;3.55;;;;;;;8.94;100.00;99867.88;5092121;28;20087;-70
2023/11/24 01:16:14;;;;;;;4.35;3.25;;;;;;;9.03;100.00;99875.34;5077263;28;20106;-70
2023/11/24 01:18:42;;;;;;;7.03;3.50;;;;;;;9.03;100.00;99872.69;5072513;28;20088;-70
2023/11/24 01:21:11;;;;;;;5.47;3.38;;;;;;;9.02;100.00;99868.34;5069816;28;20130;-68
2023/11/24 01:23:39;;;;;;;3.10;2.80;;;;;;;9.04;100.00;99874.41;5077176;28;20044;-69
2023/11/24 01:26:11;;;;;;;4.35;3.15;;;;;;;9.01;100.00;99866.63;5078829;28;20618;-69
2023/11/24 01:28:39;;;;;;;4.60;3.28;;;;;;;9.07;100.00;99869.84;5076398;28;20130;-69
2023/11/24 01:31:08;;;;;;;6.45;2.80;;;;;;;9.09;100.00;99867.97;5087860;28;20066;-68
2023/11/24 01:33:37;;;;;;;4.05;2.85;;;;;;;9.06;100.00;99867.28;5076760;28;20808;-68
2023/11/24 01:36:07;;;;;;;4.80;2.70;;;;;;;9.03;100.00;99856.84;5076672;28;20059;-68
2023/11/24 01:38:36;;;;;;;4.50;3.00;;;;;;;9.06;100.00;99883.13;5076644;28;20051;-68
2023/11/24 01:41:06;;;;;;;5.47;3.30;;;;;;;9.00;100.00;99894.81;5072504;28;20053;-68
2023/11/24 01:43:36;;;;;;;4.90;2.80;;;;;;;8.91;100.00;99884.72;5068433;28;20068;-69
2023/11/24 01:46:05;;;;;;;6.00;3.40;;;;;;;8.79;100.00;99886.16;5081302;28;20068;-71
2023/11/24 01:48:33;;;;;;;4.68;3.15;;;;;;;8.77;100.00;99887.16;5080696;28;20048;-71
2023/11/24 01:51:06;;;;;;;5.45;3.38;;;;;;;8.74;100.00;99918.97;5071519;28;20039;-68
2023/11/24 01:53:36;;;;;;;4.40;3.03;;;;;;;8.69;100.00;99926.25;5070157;28;20048;-69
2023/11/24 01:56:07;;;;;;;5.32;3.42;;;;;;;8.71;100.00;99964.84;5074883;28;20079;-68
2023/11/24 01:58:37;;;;;;;4.85;3.10;;;;;;;8.72;100.00;99958.66;5056496;28;20044;-69
2023/11/24 02:01:08;;;;;;;6.38;1.55;;;;;;;8.59;100.00;99967.19;5078302;28;20033;-69
2023/11/24 02:03:36;;;;;;;3.03;1.40;;;;;;;8.43;100.00;99973.19;5066527;28;20086;-70
2023/11/24 02:06:05;;;;;;;5.28;1.20;;;;;;;8.35;100.00;99963.88;5072794;28;20064;-69
2023/11/24 02:08:35;;;;;;;3.70;0.70;;;;;;;8.15;100.00;99987.63;5066742;28;20052;-69
2023/11/24 02:11:05;;;;;;;4.28;1.50;;;;;;;7.95;100.00;99980.56;5069547;28;20070;-68
2023/11/24 02:13:33;;;;;;;7.72;1.13;;;;;;;7.84;100.00;99994.22;5064955;28;20072;-69
2023/11/24 02:16:04;;;;;;;7.80;1.45;;;;;;;7.67;100.00;100000.19;5056561;28;20036;-69
2023/11/24 02:18:34;;;;;;;10.77;1.83;;;;;;;7.59;100.00;99999.63;5072814;28;20063;-67
2023/11/24 02:21:02;;;;;;;7.57;2.05;;;;;;;7.52;100.00;99998.19;5068167;28;20564;-68
2023/11/24 02:23:32;;;;;;;14.65;2.28;;;;;;;7.46;100.00;99994.91;5064037;28;20053;-68
2023/11/24 02:26:00;;;;;;;6.35;2.00;;;;;;;7.36;100.00;99984.78;5070986;28;20119;-68
2023/11/24 02:28:28;;;;;;;7.80;2.03;;;;;;;7.28;100.00;99964.91;5069265;28;20094;-66
2023/11/24 02:31:00;;;;;;;11.25;2.65;;;;;;;7.23;100.00;99965.13;5070473;28;20040;-68
2023/11/24 02:33:29;;;;;;;14.70;2.88;;;;;;;7.21;100.00;99960.81;5077292;28;20045;-69
2023/11/24 02:36:05;;;;;;;12.48;2.53;;;;;;;7.09;100.00;99938.44;5082191;28;20417;-68
2023/11/24 02:38:35;;;;;;;12.43;2.70;;;;;;;7.20;100.00;99953.84;5065071;28;20052;-67
2023/11/24 02:41:05;;;;;;;10.70;2.83;;;;;;;7.17;100.00;99953.97;5067192;28;20577;-68
2023/11/24 02:43:33;;;;;;;11.98;2.92;;;;;;;7.18;100.00;99961.81;5067792;28;20059;-68
2023/11/24 02:46:02;;;;;;;12.50;2.75;;;;;;;7.16;100.00;99958.38;5072346;28;20086;-68
2023/11/24 02:48:30;;;;;;;14.30;2.83;;;;;;;7.14;100.00;99949.66;5069806;28;20044;-68
2023/11/24 02:50:58;;;;;;;13.95;2.72;;;;;;;7.22;100.00;99968.66;5067601;28;20040;-69
2023/11/24 02:53:26;;;;;;;11.27;2.15;;;;;;;7.25;100.00;99965.88;5062263;28;20499;-67
2023/11/24 02:55:56;;;;;;;13.00;2.78;;;;;;;7.19;100.00;99950.34;5069878;28;20059;-69
2023/11/24 02:58:26;;;;;;;12.10;2.60;;;;;;;7.30;100.00;99958.66;5069926;28;20048;-68
2023/11/24 03:00:55;;;;;;;;;;;;;;;7.33;100.00;99963.81;5086842;28;20093;-68
2023/11/24 03:03:26;;;;;;;13.53;2.87;;;;;;;7.34;100.00;99962.03;5061496;28;19928;-68
2023/11/24 03:05:55;;;;;;;8.88;2.50;;;;;;;7.36;100.00;99955.78;5071667;28;20044;-67
2023/11/24 03:08:23;;;;;;;11.43;3.05;;;;;;;7.43;100.00;99951.13;5068108;28;20045;-68
2023/11/24 03:10:52;;;;;;;6.82;2.58;;;;;;;7.48;100.00;99957.06;5070698;28;20102;-67
2023/11/24 03:13:21;;;;;;;10.00;2.33;;;;;;;7.49;100.00;99955.28;5062515;28;20109;-67
2023/11/24 03:15:49;;;;;;;8.77;2.63;;;;;;;7.45;100.00;99961.59;5069293;28;20513;-68
2023/11/24 03:18:17;;;;;;;9.27;2.55;;;;;;;7.37;100.00;99948.75;5070061;28;20063;-68
2023/11/24 03:20:45;;;;;;;13.68;2.85;;;;;;;7.36;100.00;99945.25;5070923;28;20471;-68
2023/11/24 03:23:13;;;;;;;12.45;2.42;;;;;;;7.36;100.00;99954.94;5056027;28;20049;-68
2023/11/24 03:25:41;;;;;;;8.63;2.20;;;;;;;7.38;100.00;99966.28;5069252;28;20237;-67
2023/11/24 03:28:12;;;;;;;15.63;2.67;;;;;;;7.37;100.00;99972.47;5069789;28;20048;-67
2023/11/24 03:30:41;;;;;;;9.68;2.40;;;;;;;7.39;100.00;99976.75;5066340;28;20049;-68
2023/11/24 03:33:10;;;;;;;7.93;2.30;;;;;;;7.40;100.00;99960.00;5062962;28;20072;-67
2023/11/24 03:35:38;;;;;;;15.35;3.00;;;;;;;7.46;100.00;99965.94;5070975;28;20064;-68
2023/11/24 03:38:05;;;;;;;10.20;2.35;;;;;;;7.47;100.00;99970.28;5051757;28;20984;-70
2023/11/24 03:40:35;;;;;;;7.75;2.05;;;;;;;7.49;100.00;99976.38;5049990;28;20049;-67
2023/11/24 03:43:03;;;;;;;12.18;2.00;;;;;;;7.33;100.00;99974.34;5055640;28;20044;-68
2023/11/24 03:45:31;;;;;;;9.98;1.60;;;;;;;7.29;100.00;99985.06;5067412;28;20586;-69
2023/11/24 03:48:02;;;;;;;9.90;1.40;;;;;;;7.17;100.00;99981.16;5070919;28;20229;-66
2023/11/24 03:50:31;;;;;;;8.68;1.95;;;;;;;7.11;100.00;99965.59;5073152;28;20128;-67
2023/11/24 03:53:02;;;;;;;6.60;1.10;;;;;;;6.93;100.00;99938.19;5062602;28;20052;-66
2023/11/24 03:55:29;;;;;;;7.63;1.55;;;;;;;6.94;100.00;99947.81;5072634;28;20135;-67
2023/11/24 03:57:58;;;;;;;5.47;1.52;;;;;;;6.90;100.00;99940.13;5055592;28;20127;-68
2023/11/24 04:00:28;;;;;;;7.05;1.35;;;;;;;6.84;100.00;99945.63;5068944;28;20187;-67
2023/11/24 04:02:55;;;;;;;8.02;1.55;;;;;;;6.88;100.00;99953.34;5041992;28;20499;-67
2023/11/24 04:05:26;;;;;;;6.70;1.38;;;;;;;6.89;100.00;99947.16;5050027;28;20044;-67
2023/11/24 04:07:55;;;;;;;6.53;1.40;;;;;;;6.84;100.00;99945.63;5069365;28;20057;-69
2023/11/24 04:10:27;;;;;;;8.73;0.90;;;;;;;6.78;100.00;99951.97;5069018;28;20036;-68
2023/11/24 04:12:57;;;;;;;11.50;1.35;;;;;;;6.72;100.00;99946.94;5061629;28;20052;-66
2023/11/24 04:15:25;;;;;;;8.70;1.23;;;;;;;6.68;100.00;99953.25;5072204;28;20060;-70
2023/11/24 04:17:53;;;;;;;8.73;1.23;;;;;;;6.62;100.00;99954.31;5053269;28;20056;-67
2023/11/24 04:20:22;;;;;;;14.18;1.92;;;;;;;6.59;100.00;99962.34;5072888;28;20052;-68
2023/11/24 04:22:53;;;;;;;7.60;1.48;;;;;;;6.54;100.00;99952.91;5061616;28;20068;-67
2023/11/24 04:25:21;;;;;;;8.20;1.45;;;;;;;6.47;100.00;99947.00;5072220;28;20467;-68
2023/11/24 04:27:49;;;;;;;6.85;1.10;;;;;;;6.45;100.00;99956.75;5073291;28;20072;-69
2023/11/24 04:30:17;;;;;;;9.88;1.50;;;;;;;6.38;100.00;99963.13;5075610;28;20129;-68
2023/11/24 04:32:45;;;;;;;8.40;1.40;;;;;;;6.32;100.00;99968.59;5072713;28;20041;-67
2023/11/24 04:35:14;;;;;;;9.48;1.42;;;;;;;6.33;100.00;99965.06;5087104;28;20720;-70
2023/11/24 04:37:41;;;;;;;10.18;1.45;;;;;;;6.26;100.00;99958.34;5073015;28;20033;-69
2023/11/24 04:40:11;;;;;;;9.90;1.60;;;;;;;6.18;100.00;99955.97;5074968;28;20118;-69
2023/11/24 04:42:39;;;;;;;6.60;1.20;;;;;;;6.15;100.00;99952.56;5049751;28;20116;-67
2023/11/24 04:45:11;;;;;;;7.82;1.20;;;;;;;6.17;100.00;99948.13;5068319;28;20048;-68
2023/11/24 04:47:39;;;;;;;7.53;1.20;;;;;;;6.08;100.00;99937.97;5077943;28;20509;-68
2023/11/24 04:50:08;;;;;;;8.45;1.13;;;;;;;6.04;100.00;99950.34;5039904;28;20075;-68
2023/11/24 04:52:36;;;;;;;10.05;1.65;;;;;;;5.99;100.00;99939.97;5044831;28;20244;-68
2023/11/24 04:55:05;;;;;;;7.07;1.58;;;;;;;5.95;100.00;99932.28;5063069;28;20084;-68
2023/11/24 04:57:35;;;;;;;9.57;1.60;;;;;;;6.09;100.00;99953.69;5074224;28;20048;-69
2023/11/24 05:00:06;;;;;;;7.05;1.38;;;;;;;6.09;100.00;99953.69;5067240;28;20128;-69
2023/11/24 05:02:35;;;;;;;13.10;1.52;;;;;;;6.01;100.00;99939.94;5056472;28;20139;-69
2023/11/24 05:05:03;;;;;;;10.70;1.65;;;;;;;6.08;100.00;99951.97;5067495;28;20144;-69
2023/11/24 05:07:31;;;;;;;12.60;2.58;;;;;;;6.09;100.00;99950.19;5071253;28;20036;-69
2023/11/24 05:10:05;;;;;;;11.20;1.77;;;;;;;6.10;100.00;99947.50;5066086;28;20048;-68
2023/11/24 05:12:35;;;;;;;10.43;1.70;;;;;;;6.13;100.00;99946.53;5062534;28;20166;-67
2023/11/24 05:15:07;;;;;;;14.70;2.50;;;;;;;6.15;100.00;99949.94;5066192;28;20052;-68
2023/11/24 05:17:38;;;;;;;18.48;2.47;;;;;;;6.18;100.00;99937.56;5071009;28;20504;-68
2023/11/24 05:20:12;;;;;;;12.32;1.67;;;;;;;6.19;100.00;99920.00;5067047;28;20063;-69
2023/11/24 05:22:40;;;;;;;10.65;2.00;;;;;;;6.16;100.00;99928.88;5065662;28;20041;-67
2023/11/24 05:25:09;;;;;;;8.05;1.50;;;;;;;6.11;100.00;99919.44;5067212;28;20055;-69
2023/11/24 05:27:39;;;;;;;15.20;2.08;;;;;;;6.19;100.00;99920.88;5066372;28;20057;-68
2023/11/24 05:30:10;;;;;;;15.25;2.60;;;;;;;6.23;100.00;99922.47;5078217;28;20043;-68
2023/11/24 05:32:38;;;;;;;18.25;2.67;;;;;;;6.24;100.00;99924.19;5062159;28;20436;-69
2023/11/24 05:35:07;;;;;;;8.63;1.80;;;;;;;6.29;100.00;99929.31;5080368;28;20053;-67
2023/11/24 05:37:35;;;;;;;14.82;2.20;;;;;;;6.33;100.00;99917.72;5068984;28;20048;-68
2023/11/24 05:40:06;;;;;;;12.98;1.92;;;;;;;6.38;100.00;99918.44;5069093;28;20413;-68
2023/11/24 05:42:34;;;;;;;12.88;2.20;;;;;;;6.29;100.00;99895.97;5069996;28;20516;-67
2023/11/24 05:45:05;;;;;;;14.70;2.40;;;;;;;6.31;100.00;99906.41;5068926;28;20047;-69
2023/11/24 05:47:33;;;;;;;;;;;;;;;6.30;100.00;99904.69;5074298;28;20064;-68
2023/11/24 05:50:05;;;;;;;13.20;2.67;;;;;;;6.27;100.00;99886.44;5076395;28;19924;-69
2023/11/24 05:52:33;;;;;;;10.95;2.00;;;;;;;6.31;100.00;99902.00;5069906;28;20040;-68
2023/11/24 05:55:02;;;;;;;15.65;2.20;;;;;;;6.31;100.00;99888.00;5068981;28;20368;-68
2023/11/24 05:57:31;;;;;;;14.30;2.92;;;;;;;6.34;100.00;99885.25;5056839;28;20037;-69
2023/11/24 05:59:59;;;;;;;12.88;2.28;;;;;;;6.36;100.00;99885.22;5070001;28;20477;-68
2023/11/24 06:02:53;;;;;;;16.00;2.78;;;;;;;6.29;100.00;99869.69;5083644;28;20063;-68
2023/11/24 06:05:21;;;;;;;14.60;2.38;;;;;;;6.34;100.00;99872.97;5088274;28;20056;-68
2023/11/24 06:07:49;;;;;;;13.38;2.72;;;;;;;6.32;100.00;99868.69;5086818;28;20056;-69
2023/11/24 06:10:23;;;;;;;13.98;2.33;;;;;;;6.39;100.00;99864.91;5091410;28;20052;-68
2023/11/24 06:12:51;;;;;;;17.55;3.00;;;;;;;6.39;100.00;99864.91;5084475;28;20051;-67
2023/11/24 06:15:20;;;;;;;13.35;2.95;;;;;;;6.35;100.00;99852.78;5082519;28;20562;-68
2023/11/24 06:17:49;;;;;;;14.82;2.72;;;;;;;6.38;100.00;99843.94;5086568;28;20071;-69
2023/11/24 06:20:18;;;;;;;15.38;2.70;;;;;;;6.38;100.00;99860.56;5086381;28;20097;-69
2023/11/24 06:22:47;;;;;;;14.25;2.65;;;;;;;6.38;100.00;99855.31;5085008;28;20063;-68
2023/11/24 06:25:15;;;;;;;17.98;2.85;;;;;;;6.39;100.00;99854.41;5064291;28;20048;-69
2023/11/24 06:27:44;;;;;;;12.05;2.40;;;;;;;6.38;100.00;99857.94;5070835;28;20520;-69
2023/11/24 06:30:15;;;;;;;19.58;3.03;;;;;;;6.38;100.00;99863.19;5070377;28;20048;-68
2023/11/24 06:32:43;;;;;;;8.90;2.40;;;;;;;6.38;100.00;99860.56;5080436;28;20075;-69
2023/11/24 06:35:15;;;;;;;18.95;2.75;;;;;;;6.39;100.00;99856.16;5067518;28;20529;-69
2023/11/24 06:37:45;;;;;;;9.98;2.35;;;;;;;6.42;100.00;99850.81;5067851;28;20053;-70
2023/11/24 06:40:14;;;;;;;21.98;2.95;;;;;;;6.41;100.00;99842.06;5067842;28;20036;-68
2023/11/24 06:42:42;;;;;;;13.73;2.70;;;;;;;6.43;100.00;99850.75;5067912;28;20109;-69
2023/11/24 06:45:13;;;;;;;12.93;2.30;;;;;;;6.44;100.00;99844.56;5081592;28;20117;-68
2023/11/24 06:47:42;;;;;;;14.02;2.83;;;;;;;6.40;100.00;99832.44;5074498;28;20051;-69
2023/11/24 06:50:12;;;;;;;9.38;2.25;;;;;;;6.44;100.00;99841.06;5069533;28;20033;-69
2023/11/24 06:52:40;;;;;;;12.25;2.97;;;;;;;6.34;100.00;99833.53;5070738;28;20120;-69
2023/11/24 06:55:11;;;;;;;12.82;2.97;;;;;;;6.42;100.00;99856.06;5060765;28;20127;-68
2023/11/24 06:57:39;;;;;;;12.88;2.17;;;;;;;6.47;100.00;99847.06;5072356;28;20389;-69
2023/11/24 07:00:16;;;;;;;15.30;2.63;;;;;;;6.47;100.00;99843.56;5073462;28;20048;-69
2023/11/24 07:02:48;;;;;;;11.10;2.75;;;;;;;6.45;100.00;99854.19;5072093;28;20050;-69
2023/11/24 07:05:18;;;;;;;11.40;1.90;;;;;;;6.46;100.00;99855.00;5072171;28;20324;-71
2023/11/24 07:07:46;;;;;;;11.18;2.05;;;;;;;6.44;100.00;99849.81;5077579;28;20508;-69
2023/11/24 07:10:16;;;;;;;15.43;2.00;;;;;;;6.47;100.00;99831.28;5066250;28;20045;-69
2023/11/24 07:12:44;;;;;;;14.95;3.17;;;;;;;6.48;100.00;99833.00;5068706;28;20156;-68
2023/11/24 07:15:13;;;;;;;14.23;2.67;;;;;;;6.45;100.00;99830.50;5080274;28;20082;-69
2023/11/24 07:17:42;;;;;;;13.77;2.35;;;;;;;6.43;100.00;99834.09;5069116;28;20135;-68
2023/11/24 07:20:12;;;;;;;12.38;2.55;;;;;;;6.37;100.00;99840.44;5069413;28;20390;-69
2023/11/24 07:22:41;;;;;;;10.70;2.05;;;;;;;6.45;100.00;99835.75;5069999;28;20041;-69
2023/11/24 07:25:12;;;;;;;17.73;2.50;;;;;;;6.43;100.00;99836.72;5062792;28;20428;-70
2023/11/24 07:27:45;;;;;;;;;;;;;;;6.47;100.00;99843.56;5053717;28;20044;-68
2023/11/24 07:30:14;;;;;;;13.90;2.03;;;;;;;6.47;100.00;99838.31;5072191;28;20381;-68
2023/11/24 07:32:43;;;;;;;17.33;2.70;;;;;;;6.43;100.00;99834.97;5071137;28;20119;-69
2023/11/24 07:35:14;;;;;;;11.38;2.28;;;;;;;6.47;100.00;99827.78;5063030;28;20493;-68
2023/11/24 07:37:45;;;;;;;12.30;2.00;;;;;;;6.51;100.00;99832.88;5071208;28;20040;-67
2023/11/24 07:40:14;;;;;;;;;;;;;;;6.54;100.00;99832.75;5071936;28;20135;-69
2023/11/24 07:42:49;;;;;;;12.57;1.95;;;;;;;6.59;100.00;99843.13;5069042;28;19924;-69
2023/11/24 07:45:19;;;;;;;15.23;2.35;;;;;;;6.60;100.00;99824.63;5077517;28;20066;-70
2023/11/24 07:47:48;;;;;;;10.93;1.80;;;;;;;6.67;100.00;99830.50;5086791;28;20121;-70
2023/11/24 07:50:17;;;;;;;10.05;2.05;;;;;;;6.68;100.00;99827.81;5071736;28;20048;-70
2023/11/24 07:52:46;;;;;;;8.70;2.08;;;;;;;6.69;100.00;99829.50;5054641;28;20040;-69
2023/11/24 07:55:15;;;;;;;11.30;1.90;;;;;;;6.67;100.00;99826.09;5046605;28;20096;-69
2023/11/24 07:57:44;;;;;;;10.68;2.20;;;;;;;6.66;100.00;99826.16;5070455;28;20154;-69
2023/11/24 08:00:17;;;;;;;15.48;1.83;;;;;;;6.63;100.00;99821.00;5049416;28;20075;-68
2023/11/24 08:02:48;;;;;;;11.35;1.73;;;;;;;6.66;100.00;99821.75;5072777;28;20044;-70
2023/11/24 08:05:16;;;;;;;;;;;;;;;6.68;100.00;99819.91;5081173;28;20078;-70
2023/11/24 08:07:46;;;;;;;17.17;2.50;;;;;;;6.63;100.00;99816.59;5068846;28;19965;-70
2023/11/24 08:10:14;;;;;;;14.13;2.40;;;;;;;6.58;100.00;99822.97;5070180;28;20051;-69
2023/11/24 08:12:45;;;;;;;11.25;2.15;;;;;;;6.50;100.00;99820.63;5069356;28;20051;-68
2023/11/24 08:15:16;;;;;;;15.10;2.25;;;;;;;6.42;100.00;99822.72;5063507;28;20059;-69
2023/11/24 08:17:45;;;;;;;12.50;2.40;;;;;;;6.37;100.00;99829.94;5070023;28;20052;-70
2023/11/24 08:20:14;;;;;;;12.60;2.00;;;;;;;6.33;100.00;99818.66;5079641;28;20063;-69
2023/11/24 08:22:44;;;;;;;13.00;2.53;;;;;;;6.34;100.00;99804.59;5064766;28;20054;-69
2023/11/24 08:25:12;;;;;;;12.68;2.35;;;;;;;6.33;100.00;99795.00;5062059;28;20055;-69
2023/11/24 08:27:44;;;;;;;11.82;1.80;;;;;;;6.30;100.00;99791.63;5074063;28;20080;-68
2023/11/24 08:30:12;;;;;;;12.40;2.40;;;;;;;6.25;100.00;99777.81;5078982;28;20040;-68
2023/11/24 08:32:43;;;;;;;10.32;2.70;;;;;;;6.22;100.00;99773.53;5074339;28;20084;-69
2023/11/24 08:35:13;;;;;;;11.85;2.42;;;;;;;6.20;100.00;99758.72;5062589;28;20509;-69
2023/11/24 08:37:42;;;;;;;10.70;1.95;;;;;;;6.11;100.00;99757.34;5070140;28;20072;-70
2023/11/24 08:40:16;;;;;;;11.60;2.28;;;;;;;5.99;100.00;99763.91;5071974;28;20048;-69
2023/11/24 08:42:45;;;;;;;10.40;2.17;;;;;;;5.89;100.00;99767.81;5071763;28;20063;-70
2023/11/24 08:45:16;;;;;;;10.05;2.00;;;;;;;5.83;100.00;99749.59;5075804;28;20114;-70
2023/11/24 08:47:48;;;;;;;12.45;2.40;;;;;;;5.82;100.00;99749.69;5103943;28;20411;-69
2023/11/24 08:50:18;;;;;;;18.73;2.85;;;;;;;5.88;100.00;99752.06;5065535;28;20750;-69
2023/11/24 08:52:47;;;;;;;14.60;2.40;;;;;;;5.97;100.00;99747.34;5072761;28;20159;-68
2023/11/24 08:55:16;;;;;;;9.43;1.63;;;;;;;6.11;100.00;99743.34;5067694;28;21112;-70
2023/11/24 08:57:46;;;;;;;9.85;2.38;;;;;;;6.33;100.00;99749.44;5069696;28;20075;-68
2023/11/24 09:00:15;;;;;;;12.90;2.95;;;;;;;6.43;100.00;99740.28;5069417;28;20056;-68
2023/11/24 09:02:44;;;;;;;13.70;2.15;;;;;;;6.39;100.00;99738.69;5054025;28;20061;-70
2023/11/24 09:05:15;;;;;;;12.93;2.72;;;;;;;6.41;100.00;99736.00;5059975;28;20044;-68
2023/11/24 09:07:44;;;;;;;12.10;2.25;;;;;;;6.42;100.00;99732.44;5070125;28;20045;-68
2023/11/24 09:10:14;;;;;;;10.50;2.08;;;;;;;6.47;100.00;99725.22;5066282;28;20572;-68
2023/11/24 09:12:45;;;;;;;8.38;2.20;;;;;;;6.55;100.00;99718.72;5070091;28;20072;-69
2023/11/24 09:15:14;;;;;;;9.82;1.98;;;;;;;6.60;100.00;99722.03;5067968;28;20076;-69
2023/11/24 09:17:42;;;;;;;9.65;2.65;;;;;;;6.58;100.00;99708.09;5075712;28;20540;-70
2023/11/24 09:20:16;;;;;;;8.98;2.47;;;;;;;6.59;100.00;99698.44;5055512;28;20049;-68
2023/11/24 09:22:49;;;;;;;7.95;1.92;;;;;;;6.59;100.00;99703.69;5067103;28;20045;-68
2023/11/24 09:25:19;;;;;;;;;;;;;;;6.57;100.00;99697.63;5068657;28;20434;-68
2023/11/24 09:27:47;;;;;;;8.65;1.90;;;;;;;6.57;100.00;99703.75;5073315;28;19924;-69
2023/11/24 09:30:17;;;;;;;7.32;1.80;;;;;;;6.51;100.00;99705.75;5069341;28;20033;-68
2023/11/24 09:32:47;;;;;;;9.00;1.75;;;;;;;6.48;100.00;99701.47;5072488;28;20527;-69
2023/11/24 09:35:16;;;;;;;6.10;1.40;;;;;;;6.45;100.00;99700.78;5061029;28;20044;-70
2023/11/24 09:37:45;;;;;;;6.78;1.60;;;;;;;6.46;100.00;99695.41;5073413;28;20064;-68
2023/11/24 09:40:16;;;;;;;9.38;1.98;;;;;;;6.47;100.00;99691.88;5075680;28;22728;-69
2023/11/24 09:42:47;;;;;;;9.05;1.73;;;;;;;6.52;100.00;99692.56;5059848;28;20056;-69
2023/11/24 09:45:19;;;;;;;5.32;1.45;;;;;;;6.55;100.00;99684.53;5065135;28;20048;-67
2023/11/24 09:47:51;;;;;;;6.35;1.55;;;;;;;6.59;100.00;99683.50;5072603;28;20064;-69
2023/11/24 09:50:24;;;;;;;8.07;1.60;;;;;;;6.59;100.00;99685.28;5073306;28;20144;-67
2023/11/24 09:52:55;;;;;;;9.57;2.38;;;;;;;6.50;100.00;99683.00;5071829;28;20500;-68
2023/11/24 09:55:28;;;;;;;8.02;1.60;;;;;;;6.38;100.00;99676.50;5065948;28;20044;-69
2023/11/24 09:57:57;;;;;;;6.32;1.48;;;;;;;6.37;100.00;99680.03;5073636;28;20102;-69
2023/11/24 10:00:26;;;;;;;12.50;1.60;;;;;;;6.25;100.00;99689.28;5074761;28;20044;-69
2023/11/24 10:02:58;;;;;;;8.37;2.17;;;;;;;6.17;100.00;99679.97;5073476;28;20063;-70
2023/11/24 10:05:27;;;;;;;7.68;1.90;;;;;;;6.00;100.00;99678.03;5078116;28;20788;-70
2023/11/24 10:07:56;;;;;;;9.30;2.03;;;;;;;5.90;100.00;99682.81;5072286;28;20032;-70
2023/11/24 10:10:28;;;;;;;3.65;1.20;;;;;;;5.81;100.00;99683.16;5054449;28;20071;-69
2023/11/24 10:12:59;;;;;;;5.53;1.38;;;;;;;5.70;100.00;99677.41;5067842;28;20048;-69
2023/11/24 10:15:30;;;;;;;4.38;1.27;;;;;;;5.60;100.00;99678.69;5063946;28;20562;-67
2023/11/24 10:18:03;;;;;;;4.90;1.10;;;;;;;5.53;100.00;99677.22;5054256;28;20060;-68
2023/11/24 10:20:32;;;;;;;3.90;0.98;;;;;;;5.47;100.00;99678.31;5070397;28;20432;-67
2023/11/24 10:23:00;;;;;;;1.05;0.57;;;;;;;5.42;100.00;99677.63;5068388;28;20036;-69
2023/11/24 10:25:33;;;;;;;4.07;0.80;;;;;;;5.38;100.00;99667.28;5063013;28;20533;-69
2023/11/24 10:28:06;;;;;;;1.70;0.65;;;;;;;5.32;100.00;99657.88;5085903;28;20058;-69
2023/11/24 10:30:38;;;;;;;3.08;0.90;;;;;;;5.35;100.00;99672.66;5072120;28;20056;-70
2023/11/24 10:33:06;;;;;;;3.40;0.73;;;;;;;5.35;100.00;99677.91;5072405;28;20441;-69
2023/11/24 10:35:55;;;;;;;2.58;0.50;;;;;;;5.33;100.00;99662.22;5065046;28;20047;-70
2023/11/24 10:38:27;;;;;;;0.40;0.40;;;;;;;5.33;100.00;99656.97;5053019;28;20052;-70
2023/11/24 10:41:04;;;;;;;4.10;0.82;;;;;;;5.35;100.00;99639.41;5076271;28;20050;-68
2023/11/24 10:43:34;;;;;;;1.65;0.40;;;;;;;5.35;100.00;99641.16;5091808;28;20056;-69
2023/11/24 10:46:07;;;;;;;;;;;;;;;5.37;100.00;99634.06;5075545;28;20040;-69
2023/11/24 10:48:50;;;;;;;0.70;0.50;;;;;;;5.39;100.00;99632.25;5074577;28;19924;-70
2023/11/24 10:51:27;;;;;;;3.25;0.45;;;;;;;5.46;100.00;99631.09;5078530;28;20051;-68
2023/11/24 10:54:02;;;;;;;2.22;0.52;;;;;;;5.53;100.00;99628.16;5088016;28;20067;-68
2023/11/24 10:56:40;;;;;;;1.75;0.30;;;;;;;5.64;100.00;99622.53;5068168;28;20064;-69
2023/11/24 10:59:14;;;;;;;1.33;0.38;;;;;;;5.81;100.00;99627.97;5075757;28;20057;-69
2023/11/24 11:01:42;;;;;;;2.80;0.57;;;;;;;5.76;100.00;99611.53;5076936;28;20054;-69
2023/11/24 11:04:15;;;;;;;4.10;0.95;;;;;;;5.70;100.00;99613.53;5072724;28;20485;-69
2023/11/24 11:06:52;;;;;;;2.80;0.75;;;;;;;5.60;100.00;99615.66;5073375;28;20052;-69
2023/11/24 11:09:29;;;;;;;2.45;0.98;;;;;;;5.58;100.00;99609.63;5070743;28;20048;-69
2023/11/24 11:12:33;;;;;;;7.47;1.60;;;;;;;5.61;100.00;99617.38;5068809;28;20033;-68
2023/11/24 11:15:03;;;;;;;5.22;1.58;;;;;;;5.58;100.00;99609.63;5066286;28;20044;-67
2023/11/24 11:17:31;;;;;;;5.28;0.93;;;;;;;5.61;100.00;99607.72;5064223;28;20049;-68
2023/11/24 11:20:02;;;;;;;3.65;1.10;;;;;;;5.62;100.00;99605.97;5068445;28;20055;-69
2023/11/24 11:22:36;;;;;;;4.82;0.90;;;;;;;5.70;100.00;99606.50;5068610;28;20052;-66
2023/11/24 11:25:40;;;;;;;3.13;1.05;;;;;;;5.75;100.00;99604.56;5078472;28;20541;-68
2023/11/24 11:28:46;;;;;;;6.28;1.38;;;;;;;5.79;100.00;99595.66;5067871;28;20053;-69
2023/11/24 11:31:21;;;;;;;6.55;1.40;;;;;;;5.87;100.00;99595.31;5070799;28;20374;-68
2023/11/24 11:33:51;;;;;;;5.57;0.90;;;;;;;6.03;100.00;99587.69;5068366;28;20412;-68
2023/11/24 11:36:20;;;;;;;6.13;1.05;;;;;;;6.25;100.00;99580.63;5061218;28;21198;-68
2023/11/24 11:38:53;;;;;;;3.75;1.02;;;;;;;6.36;100.00;99567.88;5068015;28;20056;-68
2023/11/24 11:41:38;;;;;;;4.45;0.93;;;;;;;6.35;100.00;99560.91;5069611;28;20045;-69
2023/11/24 11:44:18;;;;;;;3.28;0.70;;;;;;;6.28;100.00;99560.34;5088307;28;20075;-68
2023/11/24 11:47:12;;;;;;;4.68;0.93;;;;;;;6.23;100.00;99543.03;5052528;28;20064;-69